Time;durP1;ratioP1;P1;durP2;ratioP2;P2;SDS_P1;SDS_P2;PMS_P1;PMS_P2;Temp;Humidity;BMP_temperature;BMP_pressure;BME280_temperature;BME280_humidity;BME280_pressure;Samples;Min_cycle;Max_cycle;Signal;HPM_P1;HPM_P2
2021/03/28 00:02:08;;;;;;;22.02;12.55;;;333.30;1715.20;;;;;;5024183;28;20389;-74
2021/03/28 00:04:52;;;;;;;20.67;11.30;;;333.20;1740.80;;;;;;5041815;28;20029;-74
2021/03/28 00:07:20;;;;;;;18.70;12.05;;;333.10;1766.40;;;;;;5042680;28;20543;-74
2021/03/28 00:09:57;;;;;;;23.27;10.88;;;333.10;1766.40;;;;;;5031369;28;20033;-73
2021/03/28 00:12:27;;;;;;;21.25;11.80;;;333.00;1766.40;;;;;;5034254;28;20017;-74
2021/03/28 00:15:17;;;;;;;18.23;11.65;;;332.90;1792.00;;;;;;5033885;28;20378;-73
2021/03/28 00:17:42;;;;;;;20.33;12.25;;;308.10;1792.00;;;;;;5032486;28;20033;-74
2021/03/28 00:20:14;;;;;;;31.67;16.20;;;332.80;1792.00;;;;;;5033597;28;20382;-73
2021/03/28 00:23:00;;;;;;;27.95;13.15;;;308.10;1792.00;;;;;;5033838;28;20477;-73
2021/03/28 00:25:35;;;;;;;45.42;22.25;;;308.00;1792.00;;;;;;5033837;28;20022;-73
2021/03/28 00:28:09;;;;;;;42.35;19.35;;;307.70;1843.20;;;;;;5031467;28;20049;-76
2021/03/28 00:30:41;;;;;;;37.92;17.00;;;307.70;1843.20;;;;;;5031017;28;20022;-74
2021/03/28 00:33:10;;;;;;;26.27;13.75;;;307.70;1817.60;;;;;;5033516;28;20115;-73
2021/03/28 00:35:57;;;;;;;19.23;11.98;;;307.70;1817.60;;;;;;5033722;28;20018;-74
2021/03/28 00:38:30;;;;;;;16.08;11.07;;;307.80;1817.60;;;;;;5033105;28;20477;-73
2021/03/28 00:41:17;;;;;;;16.95;10.60;;;307.80;1792.00;;;;;;5033423;28;20037;-79
2021/03/28 00:44:20;;;;;;;18.58;11.40;;;307.80;1792.00;;;;;;5032086;28;20044;-74
2021/03/28 00:47:02;;;;;;;19.83;11.20;;;307.80;1792.00;;;;;;4972548;28;20085;-74
2021/03/28 00:49:32;;;;;;;21.80;11.88;;;307.80;1792.00;;;;;;4972511;28;20035;-75
2021/03/28 00:52:08;;;;;;;20.65;12.20;;;307.80;1766.40;;;;;;4972459;28;20507;-74
2021/03/28 00:54:53;;;;;;;21.17;12.10;;;307.80;1766.40;;;;;;4972462;28;20034;-74
2021/03/28 00:57:30;;;;;;;19.92;9.50;;;307.70;1792.00;;;;;;4972400;28;20039;-74
2021/03/28 00:59:56;;;;;;;;;;;307.70;1766.40;;;;;;4972835;28;20601;-74
2021/03/28 01:02:28;;;;;;;19.03;9.93;;;307.70;1766.40;;;;;;4972216;28;19949;-74
2021/03/28 01:05:00;;;;;;;17.20;10.10;;;307.80;1766.40;;;;;;4972272;28;20046;-74
2021/03/28 01:07:34;;;;;;;15.45;9.52;;;307.60;1766.40;;;;;;4971056;28;20102;-74
2021/03/28 01:10:37;;;;;;;18.27;10.30;;;307.60;1766.40;;;;;;4971525;28;20031;-74
2021/03/28 01:13:34;;;;;;;16.17;7.90;;;307.70;1740.80;;;;;;4970655;28;20523;-74
2021/03/28 01:16:34;;;;;;;16.05;9.32;;;307.70;1766.40;;;;;;4970066;28;20057;-74
2021/03/28 01:19:24;;;;;;;13.20;7.82;;;307.70;1740.80;;;;;;4971998;28;20031;-75
2021/03/28 01:22:11;;;;;;;15.13;8.80;;;307.60;1766.40;;;;;;4971911;28;20467;-73
2021/03/28 01:24:52;;;;;;;10.15;7.38;;;307.70;1740.80;;;;;;5027225;28;20041;-74
2021/03/28 01:27:45;;;;;;;13.43;7.85;;;307.70;1740.80;;;;;;5030147;28;20038;-73
2021/03/28 01:30:17;;;;;;;14.90;8.45;;;307.80;1715.20;;;;;;5032233;28;20022;-72
2021/03/28 01:32:45;;;;;;;16.25;8.52;;;307.60;1715.20;;;;;;5032499;28;20017;-73
2021/03/28 01:35:10;;;;;;;13.10;7.88;;;307.70;1715.20;;;;;;5032551;28;20021;-73
2021/03/28 01:37:48;;;;;;;12.50;8.02;;;307.70;1715.20;;;;;;5032550;28;20523;-73
2021/03/28 01:40:23;;;;;;;14.45;8.60;;;307.70;1740.80;;;;;;5029758;28;20025;-74
2021/03/28 01:43:07;;;;;;;14.95;6.97;;;307.70;1715.20;;;;;;5031583;28;20026;-73
2021/03/28 01:45:51;;;;;;;16.63;7.72;;;307.80;1715.20;;;;;;5031269;28;20500;-74
2021/03/28 01:48:23;;;;;;;11.38;6.90;;;307.70;1740.80;;;;;;5030953;28;20052;-73
2021/03/28 01:51:19;;;;;;;10.50;6.03;;;307.60;1740.80;;;;;;5031558;28;20025;-73
2021/03/28 01:53:57;;;;;;;10.93;7.07;;;307.70;1740.80;;;;;;5030383;28;20040;-75
2021/03/28 01:56:23;;;;;;;14.75;7.47;;;307.70;1740.80;;;;;;5031905;28;20026;-74
2021/03/28 01:59:02;;;;;;;9.40;5.97;;;307.70;1740.80;;;;;;5032344;28;20017;-73
2021/03/28 02:01:57;;;;;;;12.35;6.35;;;307.70;1740.80;;;;;;5031886;28;20033;-74
2021/03/28 02:04:23;;;;;;;15.63;7.28;;;307.60;1740.80;;;;;;5032028;28;20104;-75
2021/03/28 02:07:16;;;;;;;11.35;6.68;;;307.60;1740.80;;;;;;5032015;28;20112;-74
2021/03/28 02:09:51;;;;;;;12.55;6.00;;;307.60;1740.80;;;;;;5032264;28;20490;-78
2021/03/28 02:12:50;;;;;;;10.07;5.70;;;307.60;1715.20;;;;;;5031102;28;20075;-73
2021/03/28 02:15:35;;;;;;;12.50;5.72;;;307.60;1715.20;;;;;;5031985;28;20021;-79
2021/03/28 02:18:27;;;;;;;20.23;6.20;;;307.60;1715.20;;;;;;5032113;28;20021;-75
2021/03/28 02:21:09;;;;;;;10.38;5.45;;;307.60;1689.60;;;;;;5031831;28;20022;-74
2021/03/28 02:23:53;;;;;;;9.60;5.22;;;307.60;1689.60;;;;;;5031492;28;20021;-74
2021/03/28 02:26:23;;;;;;;7.88;4.75;;;307.60;1689.60;;;;;;5029768;28;20030;-74
2021/03/28 02:29:10;;;;;;;11.20;4.85;;;307.50;1689.60;;;;;;5030966;28;20025;-74
2021/03/28 02:31:54;;;;;;;14.18;5.22;;;307.60;1689.60;;;;;;5031641;28;20018;-74
2021/03/28 02:34:35;;;;;;;11.88;5.47;;;307.60;1664.00;;;;;;5031849;28;20385;-80
2021/03/28 02:37:04;;;;;;;11.20;4.05;;;307.60;1664.00;;;;;;5030821;28;20045;-74
2021/03/28 02:39:44;;;;;;;9.68;4.70;;;307.60;1664.00;;;;;;5030470;28;20028;-73
2021/03/28 02:42:32;;;;;;;11.15;3.95;;;307.60;1664.00;;;;;;5029250;28;20125;-74
2021/03/28 02:45:00;;;;;;;14.13;4.00;;;307.60;1638.40;;;;;;5030632;28;20029;-79
2021/03/28 02:47:29;;;;;;;7.78;3.88;;;307.60;1638.40;;;;;;5031504;28;20079;-74
2021/03/28 02:50:26;;;;;;;16.67;3.83;;;307.60;1638.40;;;;;;5031811;28;20018;-79
2021/03/28 02:53:33;;;;;;;16.80;4.60;;;307.60;1638.40;;;;;;5031875;28;20500;-75
2021/03/28 02:56:23;;;;;;;12.30;4.20;;;307.60;1638.40;;;;;;5035767;28;20017;-80
2021/03/28 02:59:18;;;;;;;9.68;3.28;;;307.50;1638.40;;;;;;5032867;28;20033;-74
2021/03/28 03:02:09;;;;;;;11.43;3.05;;;307.60;1612.80;;;;;;5034619;28;20037;-74
2021/03/28 03:05:11;;;;;;;12.27;3.25;;;307.50;1638.40;;;;;;5034027;28;20017;-74
2021/03/28 03:07:55;;;;;;;10.60;3.40;;;307.50;1638.40;;;;;;5035762;28;20473;-74
2021/03/28 03:10:55;;;;;;;7.25;3.13;;;307.60;1638.40;;;;;;5035730;28;20049;-74
2021/03/28 03:13:47;;;;;;;10.13;3.28;;;307.50;1638.40;;;;;;4955160;29;20067;-75
2021/03/28 03:16:32;;;;;;;7.30;3.17;;;307.50;1638.40;;;;;;4955407;29;20054;-73
2021/03/28 03:19:37;;;;;;;7.82;3.80;;;307.50;1638.40;;;;;;4955330;29;20027;-73
2021/03/28 03:22:37;;;;;;;9.55;2.92;;;307.40;1638.40;;;;;;4955127;28;20043;-73
2021/03/28 03:25:34;;;;;;;13.27;2.70;;;307.50;1638.40;;;;;;4917091;29;20032;-73
2021/03/28 03:28:44;;;;;;;10.73;2.70;;;307.40;1638.40;;;;;;4916793;29;20059;-73
2021/03/28 03:31:40;;;;;;;18.73;4.30;;;307.30;1638.40;;;;;;4917068;29;20020;-73
2021/03/28 03:34:17;;;;;;;10.02;4.32;;;282.50;1638.40;;;;;;4916965;29;20028;-74
2021/03/28 03:37:15;;;;;;;16.42;4.38;;;282.20;1664.00;;;;;;4916703;29;20048;-73
2021/03/28 03:40:18;;;;;;;17.95;6.30;;;282.00;1689.60;;;;;;4916872;29;20036;-73
2021/03/28 03:43:04;;;;;;;17.55;4.30;;;282.00;1689.60;;;;;;4916687;29;20072;-73
2021/03/28 03:46:03;;;;;;;10.05;4.80;;;282.00;1689.60;;;;;;4916605;29;20032;-73
2021/03/28 03:48:54;;;;;;;13.05;4.10;;;282.00;1664.00;;;;;;4934779;28;20122;-73
2021/03/28 03:51:53;;;;;;;9.90;3.88;;;282.20;1612.80;;;;;;4973974;28;20035;-73
2021/03/28 03:54:37;;;;;;;16.20;3.97;;;282.10;1612.80;;;;;;4979666;28;20035;-73
2021/03/28 03:57:16;;;;;;;8.18;2.40;;;282.40;1587.20;;;;;;4993471;28;20038;-73
2021/03/28 03:59:57;;;;;;;5.55;2.65;;;282.50;1561.60;;;;;;4993020;28;20026;-74
2021/03/28 04:03:10;;;;;;;14.60;3.80;;;282.50;1561.60;;;;;;5029986;28;20572;-73
2021/03/28 04:06:07;;;;;;;10.63;3.63;;;282.50;1561.60;;;;;;4915595;29;20024;-74
2021/03/28 04:09:00;;;;;;;10.57;3.28;;;282.50;1536.00;;;;;;4859933;29;20050;-74
2021/03/28 04:11:55;;;;;;;17.00;5.00;;;282.50;1536.00;;;;;;4860162;29;20038;-74
2021/03/28 04:14:38;;;;;;;11.25;2.88;;;307.20;1561.60;;;;;;4859923;29;20421;-73
2021/03/28 04:17:10;;;;;;;8.55;2.40;;;282.50;1587.20;;;;;;4860082;29;20037;-74
2021/03/28 04:19:57;;;;;;;11.48;2.65;;;282.30;1638.40;;;;;;4859895;29;20037;-72
2021/03/28 04:22:40;;;;;;;8.50;2.25;;;282.20;1664.00;;;;;;4859891;29;20037;-73
2021/03/28 04:25:06;;;;;;;7.40;2.22;;;282.20;1664.00;;;;;;4859880;29;20029;-73
2021/03/28 04:27:50;;;;;;;10.13;2.30;;;282.10;1689.60;;;;;;4859704;29;20067;-74
2021/03/28 04:30:37;;;;;;;20.20;4.25;;;282.10;1689.60;;;;;;4859600;29;20034;-73
2021/03/28 04:33:14;;;;;;;5.15;2.72;;;282.00;1715.20;;;;;;4859710;29;20578;-73
2021/03/28 04:36:00;;;;;;;9.02;2.78;;;282.10;1715.20;;;;;;4859614;29;20030;-73
2021/03/28 04:38:43;;;;;;;8.27;2.13;;;282.00;1715.20;;;;;;4861681;29;20541;-73
2021/03/28 04:41:46;;;;;;;14.43;2.10;;;282.00;1689.60;;;;;;4953835;29;20554;-74
2021/03/28 04:44:20;;;;;;;7.05;2.40;;;282.00;1689.60;;;;;;4941786;28;20456;-73
2021/03/28 04:46:58;;;;;;;5.53;2.30;;;281.90;1689.60;;;;;;5034242;28;20030;-73
2021/03/28 04:49:45;;;;;;;7.47;1.95;;;282.00;1664.00;;;;;;5015917;28;20042;-73
2021/03/28 04:52:29;;;;;;;;;;;282.00;1664.00;;;;;;5034285;28;20491;-73
2021/03/28 04:55:24;;;;;;;8.50;1.77;;;281.80;1664.00;;;;;;5033749;28;19905;-72
2021/03/28 04:58:19;;;;;;;10.27;2.58;;;281.80;1664.00;;;;;;5033759;28;20024;-74
2021/03/28 05:01:13;;;;;;;7.13;2.42;;;281.70;1689.60;;;;;;5033628;28;20041;-74
2021/03/28 05:04:16;;;;;;;13.23;2.38;;;281.70;1664.00;;;;;;5033479;28;20025;-74
2021/03/28 05:07:06;;;;;;;6.85;3.35;;;281.70;1664.00;;;;;;5033581;28;20030;-73
2021/03/28 05:10:07;;;;;;;18.02;2.28;;;281.70;1689.60;;;;;;5033423;28;20544;-73
2021/03/28 05:12:52;;;;;;;7.32;1.40;;;281.70;1689.60;;;;;;4934267;29;20392;-73
2021/03/28 05:15:40;;;;;;;6.43;1.50;;;281.70;1689.60;;;;;;4933954;29;20098;-73
2021/03/28 05:18:42;;;;;;;8.82;1.50;;;281.70;1689.60;;;;;;4934090;29;20051;-73
2021/03/28 05:21:35;;;;;;;11.45;2.85;;;281.60;1689.60;;;;;;4934066;29;20083;-73
2021/03/28 05:24:01;;;;;;;7.93;1.73;;;281.60;1689.60;;;;;;4926102;29;20040;-74
2021/03/28 05:26:45;;;;;;;7.82;1.90;;;281.60;1689.60;;;;;;4914879;29;20024;-73
2021/03/28 05:29:21;;;;;;;4.65;1.60;;;281.60;1689.60;;;;;;4914787;29;20120;-73
2021/03/28 05:32:14;;;;;;;7.88;1.73;;;256.90;1664.00;;;;;;4914993;29;20071;-73
2021/03/28 05:34:54;;;;;;;5.35;1.48;;;281.60;1689.60;;;;;;4914962;29;20068;-74
2021/03/28 05:38:01;;;;;;;4.03;2.10;;;281.70;1664.00;;;;;;4914682;29;20040;-73
2021/03/28 05:40:41;;;;;;;11.23;8.15;;;281.70;1664.00;;;;;;4914555;29;20044;-75
2021/03/28 05:43:19;;;;;;;29.10;14.30;;;281.70;1664.00;;;;;;4914745;29;20040;-74
2021/03/28 05:45:58;;;;;;;30.77;14.18;;;281.80;1664.00;;;;;;4914641;29;20032;-76
2021/03/28 05:48:39;;;;;;;115.00;65.85;;;281.70;1689.60;;;;;;4926417;28;20107;-76
2021/03/28 05:51:32;;;;;;;164.10;99.65;;;281.80;1689.60;;;;;;5031564;28;20112;-78
2021/03/28 05:54:04;;;;;;;168.18;112.03;;;281.80;1664.00;;;;;;5032705;28;20030;-73
2021/03/28 05:57:07;;;;;;;105.50;77.38;;;281.80;1689.60;;;;;;5032245;28;20101;-74
2021/03/28 05:59:54;;;;;;;82.15;59.85;;;281.70;1664.00;;;;;;5032646;28;20732;-76
2021/03/28 06:02:19;;;;;;;25.17;18.45;;;281.80;1689.60;;;;;;5033048;28;20033;-74
2021/03/28 06:05:19;;;;;;;11.20;7.25;;;281.90;1664.00;;;;;;5032875;28;20021;-73
2021/03/28 06:08:09;;;;;;;10.50;3.83;;;282.00;1664.00;;;;;;5031470;28;20473;-74
2021/03/28 06:10:53;;;;;;;5.28;2.72;;;282.00;1638.40;;;;;;5032693;28;20048;-74
2021/03/28 06:13:43;;;;;;;7.85;3.75;;;282.00;1612.80;;;;;;5031040;28;20451;-73
2021/03/28 06:16:53;;;;;;;6.32;4.78;;;282.10;1638.40;;;;;;5032414;28;20060;-74
2021/03/28 06:19:30;;;;;;;6.65;3.35;;;282.10;1638.40;;;;;;5016797;28;20041;-76
2021/03/28 06:22:20;;;;;;;9.43;3.70;;;282.20;1612.80;;;;;;5032552;28;20488;-73
2021/03/28 06:25:23;;;;;;;5.35;2.75;;;282.30;1612.80;;;;;;5032667;28;20025;-73
2021/03/28 06:28:26;;;;;;;9.75;2.60;;;282.40;1587.20;;;;;;5033083;28;20084;-74
2021/03/28 06:30:54;;;;;;;5.50;2.90;;;282.50;1587.20;;;;;;5035004;28;20393;-74
2021/03/28 06:33:42;;;;;;;50.58;24.35;;;282.50;1612.80;;;;;;5036419;28;20029;-74
2021/03/28 06:36:39;;;;;;;23.92;11.63;;;307.20;1612.80;;;;;;5036307;28;20083;-75
2021/03/28 06:39:28;;;;;;;7.45;3.33;;;307.30;1587.20;;;;;;5036840;28;20029;-74
2021/03/28 06:42:23;;;;;;;5.28;3.40;;;307.40;1587.20;;;;;;5036161;28;20030;-74
2021/03/28 06:45:07;;;;;;;7.15;3.20;;;307.60;1587.20;;;;;;5036148;28;20018;-74
2021/03/28 06:47:59;;;;;;;6.68;2.80;;;307.60;1587.20;;;;;;5035975;28;20473;-73
2021/03/28 06:50:25;;;;;;;9.40;3.03;;;307.60;1561.60;;;;;;5036120;28;20026;-74
2021/03/28 06:53:06;;;;;;;5.25;3.30;;;307.70;1561.60;;;;;;5036042;28;20040;-74
2021/03/28 06:55:34;;;;;;;6.10;3.75;;;307.80;1561.60;;;;;;5035871;28;20025;-76
2021/03/28 06:58:13;;;;;;;9.27;3.45;;;307.90;1561.60;;;;;;5036464;28;20057;-77
2021/03/28 07:01:00;;;;;;;8.25;4.40;;;307.80;1536.00;;;;;;5035862;28;20045;-78
2021/03/28 07:03:56;;;;;;;31.95;13.00;;;307.80;1510.40;;;;;;5035836;28;20381;-72
2021/03/28 07:06:51;;;;;;;10.43;6.00;;;307.50;1536.00;;;;;;5035685;28;20100;-74
2021/03/28 07:10:07;;;;;;;7.20;3.95;;;307.60;1510.40;;;;;;5036061;28;20254;-74
2021/03/28 07:12:47;;;;;;;7.35;3.00;;;307.60;1510.40;;;;;;4936396;29;20040;-75
2021/03/28 07:16:00;;;;;;;4.68;2.50;;;307.60;1510.40;;;;;;4936284;29;20032;-74
2021/03/28 07:18:51;;;;;;;4.78;2.67;;;307.60;1510.40;;;;;;4879663;29;20052;-76
2021/03/28 07:21:40;;;;;;;7.30;3.13;;;307.70;1536.00;;;;;;4879384;29;20070;-77
2021/03/28 07:24:27;;;;;;;5.97;2.55;;;307.70;1484.80;;;;;;4879554;29;20545;-76
2021/03/28 07:27:16;;;;;;;6.75;1.98;;;307.90;1484.80;;;;;;4879289;29;20060;-77
2021/03/28 07:30:01;;;;;;;3.38;1.58;;;307.90;1459.20;;;;;;4879269;29;20158;-73
2021/03/28 07:33:00;;;;;;;4.43;2.60;;;307.80;1484.80;;;;;;4879632;29;20029;-76
2021/03/28 07:35:47;;;;;;;7.65;2.22;;;307.80;1484.80;;;;;;4879217;29;20509;-74
2021/03/28 07:38:24;;;;;;;6.55;2.40;;;307.90;1484.80;;;;;;4879139;29;20561;-75
2021/03/28 07:41:14;;;;;;;8.70;3.42;;;308.00;1484.80;;;;;;4877986;29;20128;-73
2021/03/28 07:43:46;;;;;;;8.98;3.83;;;307.90;1459.20;;;;;;4878984;29;20052;-74
2021/03/28 07:46:50;;;;;;;6.25;3.42;;;308.00;1459.20;;;;;;4879044;29;20078;-73
2021/03/28 07:49:36;;;;;;;7.15;3.22;;;308.10;1459.20;;;;;;4935631;29;20044;-74
2021/03/28 07:52:30;;;;;;;8.52;5.70;;;308.10;1459.20;;;;;;4897728;29;20127;-79
2021/03/28 07:55:23;;;;;;;8.38;4.68;;;308.10;1433.60;;;;;;4897822;29;20040;-75
2021/03/28 07:58:09;;;;;;;8.57;3.47;;;308.10;1484.80;;;;;;4860240;29;20482;-75
2021/03/28 08:00:35;;;;;;;;;;;308.10;1484.80;;;;;;4860658;29;20030;-75
2021/03/28 08:03:27;;;;;;;11.63;3.75;;;332.80;1484.80;;;;;;4860311;29;19960;-75
2021/03/28 08:06:11;;;;;;;12.43;4.47;;;332.80;1459.20;;;;;;4860290;29;20030;-76
2021/03/28 08:09:26;;;;;;;19.38;3.67;;;332.90;1484.80;;;;;;4860057;29;20049;-76
2021/03/28 08:11:55;;;;;;;7.65;3.58;;;332.80;1459.20;;;;;;4840569;29;20121;-75
2021/03/28 08:14:39;;;;;;;15.50;3.75;;;332.80;1433.60;;;;;;4859630;29;20033;-77
2021/03/28 08:17:38;;;;;;;8.45;3.63;;;308.10;1408.00;;;;;;4869501;29;20070;-77
2021/03/28 08:20:25;;;;;;;11.40;3.72;;;332.90;1382.40;;;;;;4868306;29;20026;-76
2021/03/28 08:22:59;;;;;;;8.20;3.30;;;332.90;1408.00;;;;;;4869666;29;20399;-78
2021/03/28 08:25:51;;;;;;;5.93;3.22;;;332.90;1408.00;;;;;;4869503;29;20034;-77
2021/03/28 08:28:40;;;;;;;19.63;10.80;;;332.90;1408.00;;;;;;4866279;29;20057;-75
2021/03/28 08:31:35;;;;;;;9.73;4.32;;;333.00;1408.00;;;;;;4848486;29;20135;-75
2021/03/28 08:34:13;;;;;;;6.90;3.25;;;333.20;1331.20;;;;;;4822741;29;20038;-78
2021/03/28 08:36:57;;;;;;;7.40;2.75;;;333.20;1356.80;;;;;;4859106;29;20049;-76
2021/03/28 08:39:42;;;;;;;10.57;4.35;;;333.30;1331.20;;;;;;4854342;29;20030;-76
2021/03/28 08:42:28;;;;;;;9.10;3.75;;;333.40;1305.60;;;;;;4851329;29;20290;-77
2021/03/28 08:45:13;;;;;;;10.52;3.35;;;333.50;1305.60;;;;;;4859324;29;20034;-76
2021/03/28 08:48:04;;;;;;;10.52;3.65;;;333.60;1280.00;;;;;;4859453;29;20033;-77
2021/03/28 08:50:51;;;;;;;9.18;2.90;;;333.70;1280.00;;;;;;4843736;29;20044;-77
2021/03/28 08:53:23;;;;;;;9.75;5.05;;;333.50;1254.40;;;;;;4859762;29;20037;-77
2021/03/28 08:56:20;;;;;;;10.93;3.15;;;333.60;1280.00;;;;;;4859219;29;20041;-77
2021/03/28 08:59:19;;;;;;;9.77;3.10;;;333.70;1228.80;;;;;;4859429;29;20030;-76
2021/03/28 09:02:03;;;;;;;8.30;4.35;;;358.40;1228.80;;;;;;4858932;29;20053;-78
2021/03/28 09:04:46;;;;;;;10.65;3.25;;;358.50;1203.20;;;;;;4859163;29;20040;-76
2021/03/28 09:07:28;;;;;;;6.90;3.63;;;358.40;1203.20;;;;;;4864424;29;20033;-76
2021/03/28 09:09:57;;;;;;;9.82;3.10;;;333.70;1228.80;;;;;;4956249;28;20029;-76
2021/03/28 09:12:55;;;;;;;6.07;3.28;;;333.70;1228.80;;;;;;5013718;28;20087;-76
2021/03/28 09:15:52;;;;;;;8.55;6.40;;;333.50;1228.80;;;;;;5013794;28;20481;-76
2021/03/28 09:18:37;;;;;;;12.13;4.88;;;333.60;1152.00;;;;;;5013845;28;20099;-77
2021/03/28 09:21:05;;;;;;;15.00;6.40;;;333.50;1177.60;;;;;;5012402;28;20041;-78
2021/03/28 09:23:50;;;;;;;11.52;6.18;;;333.50;1177.60;;;;;;5012506;28;20025;-77
2021/03/28 09:26:53;;;;;;;8.80;4.88;;;333.70;1152.00;;;;;;5013403;28;20026;-78
2021/03/28 09:29:34;;;;;;;8.40;4.30;;;333.70;1100.80;;;;;;4899012;29;20050;-77
2021/03/28 09:32:21;;;;;;;10.32;4.50;;;333.60;1126.40;;;;;;4899276;29;20064;-75
2021/03/28 09:35:24;;;;;;;6.82;3.75;;;333.70;1126.40;;;;;;4899526;29;20066;-77
2021/03/28 09:37:52;;;;;;;8.35;4.18;;;358.60;1100.80;;;;;;4914815;29;20143;-77
2021/03/28 09:40:27;;;;;;;11.05;4.60;;;358.70;1075.20;;;;;;4899067;29;20044;-77
2021/03/28 09:43:24;;;;;;;12.85;3.38;;;358.60;1075.20;;;;;;4914865;29;20065;-78
2021/03/28 09:46:21;;;;;;;11.95;4.28;;;358.50;1024.00;;;;;;4911754;29;20036;-77
2021/03/28 09:49:03;;;;;;;11.63;5.40;;;358.50;1049.60;;;;;;4914766;29;20036;-77
2021/03/28 09:51:34;;;;;;;13.43;5.18;;;358.50;1049.60;;;;;;4914663;29;20120;-78
2021/03/28 09:54:35;;;;;;;6.40;3.80;;;358.50;1100.80;;;;;;4901971;29;20028;-80
2021/03/28 09:57:30;;;;;;;11.98;5.10;;;333.70;1100.80;;;;;;4933816;29;20075;-78
2021/03/28 10:00:14;;;;;;;7.03;3.42;;;333.70;1126.40;;;;;;4877180;29;20112;-78
2021/03/28 10:02:40;;;;;;;10.05;4.40;;;333.70;1126.40;;;;;;4877577;29;20044;-78
2021/03/28 10:05:23;;;;;;;10.25;4.80;;;333.70;1126.40;;;;;;4894285;29;20039;-80
2021/03/28 10:08:23;;;;;;;8.70;4.53;;;358.40;1100.80;;;;;;4937435;29;20043;-77
2021/03/28 10:11:27;;;;;;;8.43;3.53;;;358.60;1152.00;;;;;;4846331;29;20109;-77
2021/03/28 10:14:13;;;;;;;11.07;5.25;;;358.60;1126.40;;;;;;4807252;29;20038;-76
2021/03/28 10:16:48;;;;;;;11.85;5.18;;;358.70;1075.20;;;;;;4807267;29;20119;-76
2021/03/28 10:19:34;;;;;;;12.18;7.20;;;358.80;1075.20;;;;;;4807461;29;20043;-78
2021/03/28 10:22:23;;;;;;;9.88;5.22;;;358.90;1075.20;;;;;;4807049;29;20047;-76
2021/03/28 10:25:25;;;;;;;17.50;7.65;;;358.90;1049.60;;;;;;4806934;29;20093;-75
2021/03/28 10:28:27;;;;;;;9.30;4.15;;;358.70;1100.80;;;;;;4806823;29;20051;-76
2021/03/28 10:31:20;;;;;;;13.65;6.18;;;358.70;1075.20;;;;;;4807087;29;20491;-76
2021/03/28 10:33:51;;;;;;;7.72;4.25;;;358.60;1100.80;;;;;;4807018;29;20047;-76
2021/03/28 10:36:46;;;;;;;8.63;4.43;;;358.70;1075.20;;;;;;4810991;29;20052;-76
2021/03/28 10:39:42;;;;;;;7.22;3.75;;;358.90;1049.60;;;;;;4825019;29;20046;-75
2021/03/28 10:42:28;;;;;;;9.23;4.30;;;359.20;1024.00;;;;;;4824944;29;20038;-75
2021/03/28 10:45:26;;;;;;;13.63;4.03;;;359.10;1024.00;;;;;;4824823;29;20061;-75
2021/03/28 10:48:00;;;;;;;9.43;6.13;;;359.20;947.20;;;;;;4917802;29;20469;-76
2021/03/28 10:50:32;;;;;;;9.27;4.90;;;384.00;998.40;;;;;;4941510;28;20046;-76
2021/03/28 10:53:35;;;;;;;14.85;7.13;;;384.40;947.20;;;;;;4996833;28;20023;-76
2021/03/28 10:56:17;;;;;;;5.68;3.13;;;384.80;921.60;;;;;;4996615;28;20022;-77
2021/03/28 10:59:07;;;;;;;11.32;4.53;;;384.90;870.40;;;;;;4996753;28;20105;-74
2021/03/28 11:02:05;;;;;;;6.93;4.03;;;384.90;870.40;;;;;;4996791;28;20034;-76
2021/03/28 11:04:55;;;;;;;13.73;5.60;;;384.60;921.60;;;;;;4996756;28;20026;-76
2021/03/28 11:07:56;;;;;;;19.08;6.78;;;384.30;972.80;;;;;;4996548;28;20096;-76
2021/03/28 11:10:55;;;;;;;10.23;5.30;;;384.40;972.80;;;;;;4995428;28;20038;-76
2021/03/28 11:13:46;;;;;;;8.70;3.00;;;384.30;921.60;;;;;;4995915;28;20023;-75
2021/03/28 11:16:33;;;;;;;16.38;8.77;;;384.30;896.00;;;;;;4995257;28;20023;-75
2021/03/28 11:19:18;;;;;;;11.38;6.68;;;384.10;947.20;;;;;;4999024;28;20076;-77
2021/03/28 11:22:02;;;;;;;6.43;3.90;;;359.30;947.20;;;;;;5001242;28;20090;-77
2021/03/28 11:24:39;;;;;;;15.32;8.45;;;359.20;947.20;;;;;;5010748;28;20080;-83
2021/03/28 11:27:26;;;;;;;12.75;7.03;;;359.10;998.40;;;;;;5010767;28;20041;-76
2021/03/28 11:30:06;;;;;;;13.27;5.75;;;359.00;998.40;;;;;;5034578;28;20029;-76
2021/03/28 11:32:54;;;;;;;13.38;6.15;;;358.80;972.80;;;;;;5015617;28;20485;-75
2021/03/28 11:35:33;;;;;;;9.43;4.75;;;358.80;998.40;;;;;;5015912;28;20520;-76
2021/03/28 11:38:17;;;;;;;9.43;4.57;;;358.80;1024.00;;;;;;5017779;28;20116;-76
2021/03/28 11:41:06;;;;;;;16.85;5.57;;;358.70;972.80;;;;;;5035411;28;20033;-75
2021/03/28 11:43:35;;;;;;;15.10;6.95;;;358.60;998.40;;;;;;5035307;28;20029;-75
2021/03/28 11:46:04;;;;;;;14.82;6.25;;;358.60;998.40;;;;;;5017728;28;20021;-75
2021/03/28 11:48:41;;;;;;;10.05;4.30;;;358.60;998.40;;;;;;5035037;28;20029;-75
2021/03/28 11:51:27;;;;;;;5.65;3.00;;;358.60;972.80;;;;;;5035390;28;20064;-74
2021/03/28 11:54:10;;;;;;;13.55;3.67;;;358.70;972.80;;;;;;5035121;28;20108;-75
2021/03/28 11:57:13;;;;;;;7.68;4.20;;;358.80;972.80;;;;;;5035103;28;20037;-83
2021/03/28 11:59:38;;;;;;;9.95;4.93;;;358.80;972.80;;;;;;5034710;28;20025;-74
2021/03/28 12:02:10;;;;;;;8.88;3.75;;;358.90;998.40;;;;;;5034349;28;20049;-78
2021/03/28 12:04:40;;;;;;;15.55;7.70;;;358.90;998.40;;;;;;5034670;28;20017;-73
2021/03/28 12:07:29;;;;;;;8.80;3.00;;;359.00;998.40;;;;;;5034670;28;20033;-78
2021/03/28 12:10:15;;;;;;;20.15;7.47;;;359.00;947.20;;;;;;5034530;28;20533;-75
2021/03/28 12:12:40;;;;;;;12.30;6.07;;;358.90;1024.00;;;;;;5034052;28;20083;-74
2021/03/28 12:15:43;;;;;;;10.38;4.55;;;359.10;998.40;;;;;;5034010;28;20477;-77
2021/03/28 12:18:25;;;;;;;17.25;8.18;;;359.20;947.20;;;;;;5033804;28;20032;-75
2021/03/28 12:21:02;;;;;;;15.20;6.63;;;359.20;972.80;;;;;;5036390;28;20476;-73
2021/03/28 12:23:37;;;;;;;14.25;6.65;;;359.30;947.20;;;;;;5035796;28;20059;-74
2021/03/28 12:26:27;;;;;;;13.52;5.85;;;359.30;972.80;;;;;;5033235;28;20053;-73
2021/03/28 12:29:12;;;;;;;11.35;5.47;;;384.00;972.80;;;;;;5033396;28;20077;-74
2021/03/28 12:31:44;;;;;;;12.57;7.15;;;384.00;921.60;;;;;;5034360;28;20100;-73
2021/03/28 12:34:38;;;;;;;20.00;9.80;;;359.30;947.20;;;;;;5033548;28;20013;-73
2021/03/28 12:37:10;;;;;;;8.13;3.53;;;384.00;921.60;;;;;;5033786;28;20044;-74
2021/03/28 12:39:41;;;;;;;5.63;2.75;;;384.10;896.00;;;;;;5033892;28;20520;-73
2021/03/28 12:42:29;;;;;;;24.45;10.57;;;384.20;870.40;;;;;;5033577;28;20041;-73
2021/03/28 12:45:06;;;;;;;12.27;5.72;;;384.40;870.40;;;;;;5033072;28;20091;-72
2021/03/28 12:47:37;;;;;;;14.63;5.85;;;384.50;896.00;;;;;;5032815;28;20075;-73
2021/03/28 12:50:14;;;;;;;23.40;8.55;;;384.60;844.80;;;;;;5022243;28;20098;-73
2021/03/28 12:52:46;;;;;;;12.45;5.63;;;384.70;870.40;;;;;;5046109;28;20028;-74
2021/03/28 12:55:30;;;;;;;13.43;5.45;;;384.90;870.40;;;;;;5037859;28;20036;-77
2021/03/28 12:58:08;;;;;;;12.98;7.03;;;409.80;844.80;;;;;;5046687;28;20107;-74
2021/03/28 13:00:44;;;;;;;11.07;5.47;;;410.00;896.00;;;;;;5041143;28;20040;-73
2021/03/28 13:03:28;;;;;;;17.60;6.70;;;410.20;819.20;;;;;;5033423;28;20032;-75
2021/03/28 13:06:03;;;;;;;20.40;10.27;;;410.10;844.80;;;;;;5032386;28;20056;-74
2021/03/28 13:09:01;;;;;;;61.28;34.38;;;410.30;819.20;;;;;;5028006;28;20030;-74
2021/03/28 13:11:41;;;;;;;9.27;4.75;;;435.20;793.60;;;;;;5160149;22;20419;-78
2021/03/28 13:14:31;;;;;;;10.23;4.90;;;435.50;793.60;;;;;;5053109;28;20036;-80
2021/03/28 13:17:17;;;;;;;18.25;7.07;;;435.60;793.60;;;;;;5035188;28;20545;-79
2021/03/28 13:19:49;;;;;;;13.50;6.63;;;435.50;844.80;;;;;;5053042;28;20095;-75
2021/03/28 13:22:27;;;;;;;12.80;6.40;;;435.60;768.00;;;;;;5048085;28;20488;-80
2021/03/28 13:25:05;;;;;;;10.32;4.88;;;435.30;793.60;;;;;;5042855;28;20130;-78
2021/03/28 13:27:31;;;;;;;11.73;6.78;;;435.20;793.60;;;;;;5044791;28;20025;-78
2021/03/28 13:30:03;;;;;;;12.43;5.00;;;435.30;768.00;;;;;;5044443;28;20036;-74
2021/03/28 13:32:33;;;;;;;8.90;4.72;;;410.30;793.60;;;;;;5048881;28;20096;-78
2021/03/28 13:35:37;;;;;;;9.65;3.53;;;410.30;793.60;;;;;;5043010;28;20022;-76
2021/03/28 13:38:30;;;;;;;12.10;5.18;;;409.80;819.20;;;;;;5041771;28;20020;-78
2021/03/28 13:41:04;;;;;;;13.50;6.68;;;410.10;819.20;;;;;;5042349;28;20055;-76
2021/03/28 13:43:35;;;;;;;12.15;5.05;;;410.40;819.20;;;;;;5043477;28;20460;-78